<?xml version="1.0" encoding="UTF-8" standalone="no" ?>
<gpx xmlns="http://www.topografix.com/GPX/1/1" xmlns:xsi="http://www.w3.org/2001/XMLSchema-instance" xsi:schemaLocation="http://www.topografix.com/GPX/1/1 http://www.topografix.com/GPX/1/1/gpx.xsd" version="1.1" creator="VisuGPX - https://www.visugpx.com">
  <metadata>
    <name>13668373-ROV Saint-Ouen-l'aumône  20220925</name>
  </metadata>
  <trk>
    <name><![CDATA[13668373-ROV Saint-Ouen-l'aumône  20220925]]></name>
    <extensions>
      <line xmlns="http://www.topografix.com/GPX/gpx_style/0/2">
        <color>0000FF</color>
        <width>4</width>
      </line>
    </extensions>
    <trkseg>
      <trkpt lat="49.03429" lon="2.13209">
        <ele>35</ele>
        <time>2022-09-24T10:13:29Z</time>
      </trkpt>
      <trkpt lat="49.0347" lon="2.13297">
        <ele>37</ele>
        <time>2022-09-24T10:15:03Z</time>
      </trkpt>
      <trkpt lat="49.03366" lon="2.1329">
        <ele>36</ele>
        <time>2022-09-24T10:17:22Z</time>
      </trkpt>
      <trkpt lat="49.03299" lon="2.13166">
        <ele>38</ele>
        <time>2022-09-24T10:19:43Z</time>
      </trkpt>
      <trkpt lat="49.03223" lon="2.13053">
        <ele>43</ele>
        <time>2022-09-24T10:22:05Z</time>
      </trkpt>
      <trkpt lat="49.03216" lon="2.1307">
        <ele>43</ele>
        <time>2022-09-24T10:22:22Z</time>
      </trkpt>
      <trkpt lat="49.03107" lon="2.13178">
        <ele>42</ele>
        <time>2022-09-24T10:25:16Z</time>
      </trkpt>
      <trkpt lat="49.03014" lon="2.13388">
        <ele>37</ele>
        <time>2022-09-24T10:28:57Z</time>
      </trkpt>
      <trkpt lat="49.02831" lon="2.1389">
        <ele>40</ele>
        <time>2022-09-24T10:37:20Z</time>
      </trkpt>
      <trkpt lat="49.02793" lon="2.14124">
        <ele>42</ele>
        <time>2022-09-24T10:40:51Z</time>
      </trkpt>
      <trkpt lat="49.02962" lon="2.14369">
        <ele>47</ele>
        <time>2022-09-24T10:46:02Z</time>
      </trkpt>
      <trkpt lat="49.03148" lon="2.14086">
        <ele>50</ele>
        <time>2022-09-24T10:51:53Z</time>
      </trkpt>
      <trkpt lat="49.03275" lon="2.13826">
        <ele>48</ele>
        <time>2022-09-24T10:56:36Z</time>
      </trkpt>
      <trkpt lat="49.03369" lon="2.13609">
        <ele>48</ele>
        <time>2022-09-24T11:00:24Z</time>
      </trkpt>
      <trkpt lat="49.03435" lon="2.13472">
        <ele>45</ele>
        <time>2022-09-24T11:02:53Z</time>
      </trkpt>
      <trkpt lat="49.03428" lon="2.13435">
        <ele>43</ele>
        <time>2022-09-24T11:03:26Z</time>
      </trkpt>
      <trkpt lat="49.03466" lon="2.13373">
        <ele>40</ele>
        <time>2022-09-24T11:04:40Z</time>
      </trkpt>
      <trkpt lat="49.03506" lon="2.13338">
        <ele>38</ele>
        <time>2022-09-24T11:05:42Z</time>
      </trkpt>
      <trkpt lat="49.03603" lon="2.13321">
        <ele>38</ele>
        <time>2022-09-24T11:07:52Z</time>
      </trkpt>
      <trkpt lat="49.03739" lon="2.13477">
        <ele>45</ele>
        <time>2022-09-24T11:11:39Z</time>
      </trkpt>
      <trkpt lat="49.03865" lon="2.13628">
        <ele>47</ele>
        <time>2022-09-24T11:15:13Z</time>
      </trkpt>
      <trkpt lat="49.03926" lon="2.13585">
        <ele>47</ele>
        <time>2022-09-24T11:16:43Z</time>
      </trkpt>
      <trkpt lat="49.03947" lon="2.13541">
        <ele>48</ele>
        <time>2022-09-24T11:17:31Z</time>
      </trkpt>
      <trkpt lat="49.0396" lon="2.13463">
        <ele>50.4</ele>
      </trkpt>
      <trkpt lat="49.03964" lon="2.13298">
        <ele>49.7</ele>
      </trkpt>
      <trkpt lat="49.03956" lon="2.13209">
        <ele>49.2</ele>
      </trkpt>
      <trkpt lat="49.0396" lon="2.13006">
        <ele>48.6</ele>
        <time>2022-09-24T11:25:03Z</time>
      </trkpt>
      <trkpt lat="49.03974" lon="2.12844">
        <ele>41.9</ele>
      </trkpt>
      <trkpt lat="49.03969" lon="2.1276">
        <ele>37.6</ele>
      </trkpt>
      <trkpt lat="49.03958" lon="2.12729">
        <ele>36.8</ele>
        <time>2022-09-24T11:29:36Z</time>
      </trkpt>
      <trkpt lat="49.03968" lon="2.12624">
        <ele>37.7</ele>
        <time>2022-09-24T11:31:18Z</time>
      </trkpt>
      <trkpt lat="49.03971" lon="2.12599">
        <ele>34.8</ele>
      </trkpt>
      <trkpt lat="49.03977" lon="2.12598">
        <ele>33.8</ele>
      </trkpt>
      <trkpt lat="49.03982" lon="2.12601">
        <ele>33.2</ele>
      </trkpt>
      <trkpt lat="49.03984" lon="2.12607">
        <ele>33.2</ele>
      </trkpt>
      <trkpt lat="49.03989" lon="2.12608">
        <ele>32.5</ele>
      </trkpt>
      <trkpt lat="49.04002" lon="2.12611">
        <ele>30.9</ele>
      </trkpt>
      <trkpt lat="49.04003" lon="2.1263">
        <ele>32.7</ele>
      </trkpt>
      <trkpt lat="49.04012" lon="2.1264">
        <ele>32.5</ele>
      </trkpt>
      <trkpt lat="49.04033" lon="2.12636">
        <ele>29.8</ele>
        <time>2022-09-24T11:32:46Z</time>
      </trkpt>
      <trkpt lat="49.04096" lon="2.12676">
        <ele>31.4</ele>
      </trkpt>
      <trkpt lat="49.04163" lon="2.12713">
        <ele>29.6</ele>
        <time>2022-09-24T11:35:28Z</time>
      </trkpt>
      <trkpt lat="49.04169" lon="2.12746">
        <ele>34.1</ele>
        <time>2022-09-24T11:35:58Z</time>
      </trkpt>
      <trkpt lat="49.04161" lon="2.12767">
        <ele>37.2</ele>
      </trkpt>
      <trkpt lat="49.04168" lon="2.12783">
        <ele>38.5</ele>
        <time>2022-09-24T11:36:30Z</time>
      </trkpt>
      <trkpt lat="49.04179" lon="2.12789">
        <ele>38.8</ele>
      </trkpt>
      <trkpt lat="49.04192" lon="2.12787">
        <ele>38.1</ele>
        <time>2022-09-24T11:37:18Z</time>
      </trkpt>
      <trkpt lat="49.04225" lon="2.1277">
        <ele>32.6</ele>
      </trkpt>
      <trkpt lat="49.04249" lon="2.12763">
        <ele>31.9</ele>
        <time>2022-09-24T11:38:14Z</time>
      </trkpt>
      <trkpt lat="49.0428" lon="2.12695">
        <ele>32</ele>
        <time>2022-09-24T11:39:39Z</time>
      </trkpt>
      <trkpt lat="49.04298" lon="2.12653">
        <ele>29.5</ele>
      </trkpt>
      <trkpt lat="49.04317" lon="2.12562">
        <ele>29.8</ele>
        <time>2022-09-24T11:41:08Z</time>
      </trkpt>
      <trkpt lat="49.04324" lon="2.12409">
        <ele>29.2</ele>
        <time>2022-09-24T11:43:31Z</time>
      </trkpt>
      <trkpt lat="49.04315" lon="2.12338">
        <ele>30</ele>
        <time>2022-09-24T11:45:36Z</time>
      </trkpt>
      <trkpt lat="49.04317" lon="2.12306">
        <ele>28.7</ele>
      </trkpt>
      <trkpt lat="49.0433" lon="2.12252">
        <ele>29</ele>
        <time>2022-09-24T11:46:22Z</time>
      </trkpt>
      <trkpt lat="49.04337" lon="2.12228">
        <ele>31.7</ele>
      </trkpt>
      <trkpt lat="49.04337" lon="2.12195">
        <ele>32.3</ele>
      </trkpt>
      <trkpt lat="49.04334" lon="2.1218">
        <ele>31</ele>
      </trkpt>
      <trkpt lat="49.0433" lon="2.12176">
        <ele>30.5</ele>
        <time>2022-09-24T11:47:20Z</time>
      </trkpt>
      <trkpt lat="49.04324" lon="2.12179">
        <ele>30.2</ele>
      </trkpt>
      <trkpt lat="49.04289" lon="2.12156">
        <ele>27.9</ele>
      </trkpt>
      <trkpt lat="49.04271" lon="2.12149">
        <ele>27.6</ele>
        <time>2022-09-24T11:48:32Z</time>
      </trkpt>
      <trkpt lat="49.0437" lon="2.11975">
        <ele>26</ele>
      </trkpt>
      <trkpt lat="49.04386" lon="2.11972">
        <ele>26</ele>
        <time>2022-09-24T11:51:31Z</time>
      </trkpt>
      <trkpt lat="49.04392" lon="2.11992">
        <ele>26</ele>
        <time>2022-09-24T11:51:49Z</time>
      </trkpt>
      <trkpt lat="49.0451" lon="2.12">
        <ele>28</ele>
        <time>2022-09-24T11:54:32Z</time>
      </trkpt>
      <trkpt lat="49.04551" lon="2.11966">
        <ele>29</ele>
        <time>2022-09-24T11:55:34Z</time>
      </trkpt>
      <trkpt lat="49.04542" lon="2.11925">
        <ele>28</ele>
        <time>2022-09-24T11:56:12Z</time>
      </trkpt>
      <trkpt lat="49.04441" lon="2.11973">
        <ele>26</ele>
        <time>2022-09-24T11:58:26Z</time>
      </trkpt>
      <trkpt lat="49.04423" lon="2.11951">
        <ele>28</ele>
        <time>2022-09-24T11:59:05Z</time>
      </trkpt>
      <trkpt lat="49.04522" lon="2.1187">
        <ele>27</ele>
        <time>2022-09-24T12:01:35Z</time>
      </trkpt>
      <trkpt lat="49.04571" lon="2.11841">
        <ele>27.9</ele>
        <time>2022-09-24T12:02:19Z</time>
      </trkpt>
      <trkpt lat="49.04577" lon="2.11851">
        <ele>28</ele>
      </trkpt>
      <trkpt lat="49.04576" lon="2.119">
        <ele>26.6</ele>
      </trkpt>
      <trkpt lat="49.04581" lon="2.11915">
        <ele>26.1</ele>
        <time>2022-09-24T12:03:21Z</time>
      </trkpt>
      <trkpt lat="49.04601" lon="2.11918">
        <ele>25.4</ele>
      </trkpt>
      <trkpt lat="49.04605" lon="2.11904">
        <ele>25.2</ele>
      </trkpt>
      <trkpt lat="49.04671" lon="2.1193">
        <ele>29</ele>
        <time>2022-09-24T12:05:13Z</time>
      </trkpt>
      <trkpt lat="49.04701" lon="2.11906">
        <ele>25.1</ele>
      </trkpt>
      <trkpt lat="49.04735" lon="2.11845">
        <ele>31</ele>
        <time>2022-09-24T12:07:06Z</time>
      </trkpt>
      <trkpt lat="49.04764" lon="2.11782">
        <ele>24.9</ele>
      </trkpt>
      <trkpt lat="49.04771" lon="2.1178">
        <ele>25</ele>
      </trkpt>
      <trkpt lat="49.0478" lon="2.11768">
        <ele>25</ele>
      </trkpt>
      <trkpt lat="49.04748" lon="2.11733">
        <ele>30</ele>
        <time>2022-09-24T12:08:45Z</time>
      </trkpt>
      <trkpt lat="49.04768" lon="2.11699">
        <ele>29</ele>
        <time>2022-09-24T12:09:25Z</time>
      </trkpt>
      <trkpt lat="49.04802" lon="2.11713">
        <ele>28</ele>
        <time>2022-09-24T12:10:12Z</time>
      </trkpt>
      <trkpt lat="49.04832" lon="2.11662">
        <ele>26</ele>
        <time>2022-09-24T12:11:12Z</time>
      </trkpt>
      <trkpt lat="49.04863" lon="2.11598">
        <ele>25.1</ele>
      </trkpt>
      <trkpt lat="49.04888" lon="2.11561">
        <ele>25.3</ele>
        <time>2022-09-24T12:12:48Z</time>
      </trkpt>
      <trkpt lat="49.05057" lon="2.11701">
        <ele>26</ele>
      </trkpt>
      <trkpt lat="49.05059" lon="2.11694">
        <ele>25.9</ele>
        <time>2022-09-24T12:17:19Z</time>
      </trkpt>
      <trkpt lat="49.05133" lon="2.11654">
        <ele>25.5</ele>
      </trkpt>
      <trkpt lat="49.05151" lon="2.11608">
        <ele>25.1</ele>
        <time>2022-09-24T12:20:00Z</time>
      </trkpt>
      <trkpt lat="49.05153" lon="2.11579">
        <ele>25.5</ele>
      </trkpt>
      <trkpt lat="49.05162" lon="2.11571">
        <ele>25.8</ele>
      </trkpt>
      <trkpt lat="49.0519" lon="2.11492">
        <ele>25</ele>
        <time>2022-09-24T12:21:49Z</time>
      </trkpt>
      <trkpt lat="49.05198" lon="2.11472">
        <ele>25</ele>
      </trkpt>
      <trkpt lat="49.0521" lon="2.1146">
        <ele>25</ele>
        <time>2022-09-24T12:22:28Z</time>
      </trkpt>
      <trkpt lat="49.05237" lon="2.11503">
        <ele>24</ele>
        <time>2022-09-24T12:23:20Z</time>
      </trkpt>
      <trkpt lat="49.05273" lon="2.11483">
        <ele>25.9</ele>
      </trkpt>
      <trkpt lat="49.05341" lon="2.11405">
        <ele>26</ele>
      </trkpt>
      <trkpt lat="49.05366" lon="2.11405">
        <ele>26</ele>
      </trkpt>
      <trkpt lat="49.05392" lon="2.11354">
        <ele>24.5</ele>
        <time>2022-09-24T12:27:18Z</time>
      </trkpt>
      <trkpt lat="49.05193" lon="2.11055">
        <ele>23</ele>
        <time>2022-09-24T12:33:34Z</time>
      </trkpt>
      <trkpt lat="49.05119" lon="2.10952">
        <ele>25</ele>
        <time>2022-09-24T12:35:48Z</time>
      </trkpt>
      <trkpt lat="49.05081" lon="2.10899">
        <ele>25</ele>
        <time>2022-09-24T12:36:57Z</time>
      </trkpt>
      <trkpt lat="49.04792" lon="2.10258">
        <ele>24.9</ele>
        <time>2022-09-24T12:48:35Z</time>
      </trkpt>
      <trkpt lat="49.04847" lon="2.10132">
        <ele>29</ele>
        <time>2022-09-24T12:50:46Z</time>
      </trkpt>
      <trkpt lat="49.04969" lon="2.10324">
        <ele>26.5</ele>
      </trkpt>
      <trkpt lat="49.05061" lon="2.10487">
        <ele>25</ele>
        <time>2022-09-24T12:57:47Z</time>
      </trkpt>
      <trkpt lat="49.05095" lon="2.10549">
        <ele>25</ele>
        <time>2022-09-24T12:59:02Z</time>
      </trkpt>
      <trkpt lat="49.05228" lon="2.10537">
        <ele>25</ele>
        <time>2022-09-24T13:02:02Z</time>
      </trkpt>
      <trkpt lat="49.05264" lon="2.10532">
        <ele>26</ele>
        <time>2022-09-24T13:02:50Z</time>
      </trkpt>
      <trkpt lat="49.05289" lon="2.10532">
        <ele>26</ele>
        <time>2022-09-24T13:03:23Z</time>
      </trkpt>
      <trkpt lat="49.05302" lon="2.10527">
        <ele>25</ele>
        <time>2022-09-24T13:03:43Z</time>
      </trkpt>
      <trkpt lat="49.05317" lon="2.10526">
        <ele>25</ele>
        <time>2022-09-24T13:04:06Z</time>
      </trkpt>
      <trkpt lat="49.05341" lon="2.10587">
        <ele>26.3</ele>
      </trkpt>
      <trkpt lat="49.05371" lon="2.10632">
        <ele>30.8</ele>
      </trkpt>
      <trkpt lat="49.05385" lon="2.10697">
        <ele>33.6</ele>
        <time>2022-09-24T13:07:34Z</time>
      </trkpt>
      <trkpt lat="49.05422" lon="2.10719">
        <ele>39.5</ele>
      </trkpt>
      <trkpt lat="49.05464" lon="2.10766">
        <ele>40</ele>
      </trkpt>
      <trkpt lat="49.05536" lon="2.10808">
        <ele>42</ele>
        <time>2022-09-24T13:10:43Z</time>
      </trkpt>
      <trkpt lat="49.05694" lon="2.1086">
        <ele>62.9</ele>
        <time>2022-09-24T13:14:37Z</time>
      </trkpt>
      <trkpt lat="49.0575" lon="2.10912">
        <ele>62</ele>
        <time>2022-09-24T13:15:46Z</time>
      </trkpt>
      <trkpt lat="49.05804" lon="2.10956">
        <ele>66</ele>
        <time>2022-09-24T13:17:08Z</time>
      </trkpt>
      <trkpt lat="49.05837" lon="2.10979">
        <ele>69</ele>
        <time>2022-09-24T13:17:56Z</time>
      </trkpt>
      <trkpt lat="49.0586" lon="2.11019">
        <ele>72</ele>
        <time>2022-09-24T13:18:42Z</time>
      </trkpt>
      <trkpt lat="49.05888" lon="2.11053">
        <ele>74</ele>
        <time>2022-09-24T13:19:30Z</time>
      </trkpt>
      <trkpt lat="49.05969" lon="2.11103">
        <ele>78</ele>
        <time>2022-09-24T13:21:22Z</time>
      </trkpt>
      <trkpt lat="49.05994" lon="2.10906">
        <ele>68</ele>
        <time>2022-09-24T13:24:16Z</time>
      </trkpt>
      <trkpt lat="49.05998" lon="2.10837">
        <ele>61</ele>
        <time>2022-09-24T13:25:16Z</time>
      </trkpt>
      <trkpt lat="49.06029" lon="2.10825">
        <ele>57.3</ele>
      </trkpt>
      <trkpt lat="49.06081" lon="2.10777">
        <ele>57</ele>
        <time>2022-09-24T13:27:19Z</time>
      </trkpt>
      <trkpt lat="49.06197" lon="2.10653">
        <ele>61.1</ele>
        <time>2022-09-24T13:30:53Z</time>
      </trkpt>
      <trkpt lat="49.06268" lon="2.10687">
        <ele>62.8</ele>
      </trkpt>
      <trkpt lat="49.06355" lon="2.10746">
        <ele>61.7</ele>
      </trkpt>
      <trkpt lat="49.06513" lon="2.10819">
        <ele>66.5</ele>
        <time>2022-09-24T13:38:00Z</time>
      </trkpt>
      <trkpt lat="49.06552" lon="2.10821">
        <ele>63</ele>
        <time>2022-09-24T13:38:54Z</time>
      </trkpt>
      <trkpt lat="49.06594" lon="2.10825">
        <ele>63.4</ele>
      </trkpt>
      <trkpt lat="49.06629" lon="2.10872">
        <ele>63.3</ele>
        <time>2022-09-24T13:40:49Z</time>
      </trkpt>
      <trkpt lat="49.0665" lon="2.10842">
        <ele>60</ele>
        <time>2022-09-24T13:41:19Z</time>
      </trkpt>
      <trkpt lat="49.06661" lon="2.10871">
        <ele>61</ele>
        <time>2022-09-24T13:41:49Z</time>
      </trkpt>
      <trkpt lat="49.06694" lon="2.1093">
        <ele>64.5</ele>
        <time>2022-09-24T13:42:58Z</time>
      </trkpt>
      <trkpt lat="49.06921" lon="2.10816">
        <ele>76.1</ele>
        <time>2022-09-24T13:48:30Z</time>
      </trkpt>
      <trkpt lat="49.06936" lon="2.10788">
        <ele>74</ele>
        <time>2022-09-24T13:49:03Z</time>
      </trkpt>
      <trkpt lat="49.06941" lon="2.10774">
        <ele>74</ele>
        <time>2022-09-24T13:49:17Z</time>
      </trkpt>
      <trkpt lat="49.06948" lon="2.10749">
        <ele>77.9</ele>
        <time>2022-09-24T13:49:39Z</time>
      </trkpt>
      <trkpt lat="49.06962" lon="2.10713">
        <ele>78.2</ele>
      </trkpt>
      <trkpt lat="49.07016" lon="2.10629">
        <ele>80.6</ele>
        <time>2022-09-24T13:52:47Z</time>
      </trkpt>
      <trkpt lat="49.07123" lon="2.10505">
        <ele>85.6</ele>
      </trkpt>
      <trkpt lat="49.07233" lon="2.10445">
        <ele>88.4</ele>
        <time>2022-09-24T13:57:35Z</time>
      </trkpt>
      <trkpt lat="49.07111" lon="2.10362">
        <ele>83</ele>
      </trkpt>
      <trkpt lat="49.07072" lon="2.10311">
        <ele>79</ele>
        <time>2022-09-24T14:01:17Z</time>
      </trkpt>
      <trkpt lat="49.07005" lon="2.102">
        <ele>75.4</ele>
      </trkpt>
      <trkpt lat="49.06977" lon="2.10116">
        <ele>67</ele>
        <time>2022-09-24T14:04:50Z</time>
      </trkpt>
      <trkpt lat="49.06978" lon="2.10087">
        <ele>64</ele>
        <time>2022-09-24T14:05:15Z</time>
      </trkpt>
      <trkpt lat="49.07045" lon="2.0991">
        <ele>53</ele>
      </trkpt>
      <trkpt lat="49.07047" lon="2.09892">
        <ele>61</ele>
        <time>2022-09-24T14:08:29Z</time>
      </trkpt>
      <trkpt lat="49.07019" lon="2.09882">
        <ele>59</ele>
        <time>2022-09-24T14:09:07Z</time>
      </trkpt>
      <trkpt lat="49.0705" lon="2.09846">
        <ele>61</ele>
        <time>2022-09-24T14:09:59Z</time>
      </trkpt>
      <trkpt lat="49.07098" lon="2.0982">
        <ele>51.3</ele>
        <time>2022-09-24T14:11:12Z</time>
      </trkpt>
      <trkpt lat="49.07126" lon="2.09729">
        <ele>51.1</ele>
        <time>2022-09-24T14:13:02Z</time>
      </trkpt>
      <trkpt lat="49.07163" lon="2.09642">
        <ele>52.1</ele>
      </trkpt>
      <trkpt lat="49.07204" lon="2.09601">
        <ele>53.4</ele>
        <time>2022-09-24T14:14:45Z</time>
      </trkpt>
      <trkpt lat="49.07257" lon="2.09518">
        <ele>70</ele>
        <time>2022-09-24T14:16:50Z</time>
      </trkpt>
      <trkpt lat="49.07279" lon="2.09422">
        <ele>54.9</ele>
        <time>2022-09-24T14:18:04Z</time>
      </trkpt>
      <trkpt lat="49.07266" lon="2.09367">
        <ele>56.6</ele>
        <time>2022-09-24T14:19:00Z</time>
      </trkpt>
      <trkpt lat="49.07301" lon="2.09282">
        <ele>58.3</ele>
      </trkpt>
      <trkpt lat="49.0734" lon="2.09242">
        <ele>59.4</ele>
        <time>2022-09-24T14:21:54Z</time>
      </trkpt>
      <trkpt lat="49.07341" lon="2.09175">
        <ele>60.3</ele>
      </trkpt>
      <trkpt lat="49.07374" lon="2.09135">
        <ele>59.2</ele>
        <time>2022-09-24T14:23:05Z</time>
      </trkpt>
      <trkpt lat="49.07397" lon="2.09132">
        <ele>59.5</ele>
      </trkpt>
      <trkpt lat="49.07405" lon="2.09103">
        <ele>60.7</ele>
        <time>2022-09-24T14:24:17Z</time>
      </trkpt>
      <trkpt lat="49.07421" lon="2.09088">
        <ele>61</ele>
      </trkpt>
      <trkpt lat="49.07427" lon="2.09081">
        <ele>61</ele>
      </trkpt>
      <trkpt lat="49.07453" lon="2.09041">
        <ele>60.1</ele>
      </trkpt>
      <trkpt lat="49.07471" lon="2.09021">
        <ele>59.8</ele>
      </trkpt>
      <trkpt lat="49.07485" lon="2.08968">
        <ele>66</ele>
        <time>2022-09-24T14:26:58Z</time>
      </trkpt>
      <trkpt lat="49.07556" lon="2.08857">
        <ele>62.7</ele>
      </trkpt>
      <trkpt lat="49.07581" lon="2.08837">
        <ele>62.2</ele>
        <time>2022-09-24T14:30:22Z</time>
      </trkpt>
      <trkpt lat="49.07666" lon="2.08802">
        <ele>63</ele>
      </trkpt>
      <trkpt lat="49.07732" lon="2.0877">
        <ele>63</ele>
      </trkpt>
      <trkpt lat="49.07755" lon="2.08712">
        <ele>63.7</ele>
      </trkpt>
      <trkpt lat="49.07794" lon="2.0866">
        <ele>64.1</ele>
      </trkpt>
      <trkpt lat="49.07832" lon="2.08624">
        <ele>64.5</ele>
      </trkpt>
      <trkpt lat="49.07868" lon="2.08617">
        <ele>64.2</ele>
        <time>2022-09-24T14:36:45Z</time>
      </trkpt>
      <trkpt lat="49.07871" lon="2.08631">
        <ele>64.7</ele>
      </trkpt>
      <trkpt lat="49.07938" lon="2.08663">
        <ele>66.7</ele>
      </trkpt>
      <trkpt lat="49.08006" lon="2.08672">
        <ele>66.5</ele>
      </trkpt>
      <trkpt lat="49.08158" lon="2.08684">
        <ele>69</ele>
        <time>2022-09-24T14:42:25Z</time>
      </trkpt>
      <trkpt lat="49.08237" lon="2.08616">
        <ele>69.2</ele>
        <time>2022-09-24T14:47:38Z</time>
      </trkpt>
      <trkpt lat="49.08388" lon="2.08608">
        <ele>76.9</ele>
      </trkpt>
      <trkpt lat="49.08423" lon="2.08622">
        <ele>77.6</ele>
      </trkpt>
      <trkpt lat="49.08549" lon="2.08621">
        <ele>80.8</ele>
        <time>2022-09-24T14:53:34Z</time>
      </trkpt>
      <trkpt lat="49.08595" lon="2.08636">
        <ele>81.4</ele>
      </trkpt>
      <trkpt lat="49.0869" lon="2.0868">
        <ele>83</ele>
      </trkpt>
      <trkpt lat="49.08736" lon="2.08725">
        <ele>83.5</ele>
      </trkpt>
      <trkpt lat="49.08779" lon="2.08785">
        <ele>85</ele>
        <time>2022-09-24T14:58:12Z</time>
      </trkpt>
      <trkpt lat="49.0884" lon="2.08884">
        <ele>84.8</ele>
      </trkpt>
      <trkpt lat="49.08895" lon="2.08957">
        <ele>85.5</ele>
        <time>2022-09-24T15:01:57Z</time>
      </trkpt>
      <trkpt lat="49.09065" lon="2.09013">
        <ele>87.8</ele>
        <time>2022-09-24T15:06:03Z</time>
      </trkpt>
      <trkpt lat="49.09002" lon="2.08775">
        <ele>84.9</ele>
      </trkpt>
      <trkpt lat="49.08951" lon="2.08644">
        <ele>79.5</ele>
      </trkpt>
      <trkpt lat="49.0886" lon="2.08536">
        <ele>70.4</ele>
        <time>2022-09-24T15:13:44Z</time>
      </trkpt>
      <trkpt lat="49.09029" lon="2.08519">
        <ele>70.7</ele>
      </trkpt>
      <trkpt lat="49.0904" lon="2.08553">
        <ele>72.3</ele>
        <time>2022-09-24T15:18:09Z</time>
      </trkpt>
      <trkpt lat="49.09115" lon="2.08483">
        <ele>71.6</ele>
      </trkpt>
      <trkpt lat="49.09216" lon="2.08345">
        <ele>71.4</ele>
      </trkpt>
      <trkpt lat="49.09246" lon="2.0833">
        <ele>71.9</ele>
      </trkpt>
      <trkpt lat="49.09209" lon="2.08209">
        <ele>71.5</ele>
        <time>2022-09-24T15:23:06Z</time>
      </trkpt>
      <trkpt lat="49.09273" lon="2.08142">
        <ele>72</ele>
        <time>2022-09-24T15:24:48Z</time>
      </trkpt>
      <trkpt lat="49.09317" lon="2.08095">
        <ele>72.4</ele>
      </trkpt>
      <trkpt lat="49.09354" lon="2.08013">
        <ele>72.4</ele>
      </trkpt>
      <trkpt lat="49.09372" lon="2.08004">
        <ele>72.5</ele>
      </trkpt>
      <trkpt lat="49.09416" lon="2.07892">
        <ele>73</ele>
      </trkpt>
      <trkpt lat="49.09423" lon="2.07821">
        <ele>73.3</ele>
      </trkpt>
      <trkpt lat="49.09467" lon="2.07707">
        <ele>73.4</ele>
      </trkpt>
      <trkpt lat="49.0957" lon="2.07564">
        <ele>73.8</ele>
        <time>2022-09-24T15:36:49Z</time>
      </trkpt>
      <trkpt lat="49.09622" lon="2.07453">
        <ele>74.2</ele>
      </trkpt>
      <trkpt lat="49.09707" lon="2.073">
        <ele>74.4</ele>
        <time>2022-09-24T15:41:43Z</time>
      </trkpt>
      <trkpt lat="49.09753" lon="2.07283">
        <ele>75</ele>
      </trkpt>
      <trkpt lat="49.09818" lon="2.07292">
        <ele>75.3</ele>
      </trkpt>
      <trkpt lat="49.09842" lon="2.07305">
        <ele>75.3</ele>
      </trkpt>
      <trkpt lat="49.0992" lon="2.07231">
        <ele>76</ele>
      </trkpt>
      <trkpt lat="49.09926" lon="2.07182">
        <ele>75</ele>
        <time>2022-09-24T15:46:43Z</time>
      </trkpt>
      <trkpt lat="49.10066" lon="2.07268">
        <ele>82</ele>
        <time>2022-09-24T15:50:04Z</time>
      </trkpt>
      <trkpt lat="49.10225" lon="2.07361">
        <ele>78</ele>
        <time>2022-09-24T15:53:32Z</time>
      </trkpt>
      <trkpt lat="49.10199" lon="2.07547">
        <ele>88</ele>
      </trkpt>
      <trkpt lat="49.09958" lon="2.08178">
        <ele>85.8</ele>
        <time>2022-09-24T16:06:12Z</time>
      </trkpt>
      <trkpt lat="49.09934" lon="2.08315">
        <ele>84.8</ele>
      </trkpt>
      <trkpt lat="49.09746" lon="2.08755">
        <ele>82.2</ele>
      </trkpt>
      <trkpt lat="49.09652" lon="2.09081">
        <ele>88.9</ele>
      </trkpt>
      <trkpt lat="49.09589" lon="2.0918">
        <ele>92.3</ele>
        <time>2022-09-24T16:24:35Z</time>
      </trkpt>
      <trkpt lat="49.09516" lon="2.09491">
        <ele>103.4</ele>
        <time>2022-09-24T16:29:17Z</time>
      </trkpt>
      <trkpt lat="49.0949" lon="2.09547">
        <ele>104.9</ele>
      </trkpt>
      <trkpt lat="49.0949" lon="2.09736">
        <ele>108.8</ele>
      </trkpt>
      <trkpt lat="49.0952" lon="2.09785">
        <ele>109</ele>
        <time>2022-09-24T16:32:35Z</time>
      </trkpt>
      <trkpt lat="49.09336" lon="2.09882">
        <ele>106</ele>
      </trkpt>
      <trkpt lat="49.09177" lon="2.09918">
        <ele>105</ele>
      </trkpt>
      <trkpt lat="49.09174" lon="2.09903">
        <ele>105</ele>
      </trkpt>
      <trkpt lat="49.0894" lon="2.10059">
        <ele>101</ele>
        <time>2022-09-24T16:45:33Z</time>
      </trkpt>
      <trkpt lat="49.09264" lon="2.11293">
        <ele>97.3</ele>
        <time>2022-09-24T17:04:12Z</time>
      </trkpt>
      <trkpt lat="49.09076" lon="2.11777">
        <ele>100</ele>
      </trkpt>
      <trkpt lat="49.08899" lon="2.1218">
        <ele>97.2</ele>
        <time>2022-09-24T17:19:16Z</time>
      </trkpt>
      <trkpt lat="49.08732" lon="2.11998">
        <ele>95</ele>
      </trkpt>
      <trkpt lat="49.08625" lon="2.11787">
        <ele>96.7</ele>
      </trkpt>
      <trkpt lat="49.08475" lon="2.11534">
        <ele>97.1</ele>
        <time>2022-09-24T17:31:46Z</time>
      </trkpt>
      <trkpt lat="49.08085" lon="2.11341">
        <ele>94</ele>
        <time>2022-09-24T17:41:22Z</time>
      </trkpt>
      <trkpt lat="49.07959" lon="2.11311">
        <ele>95.8</ele>
      </trkpt>
      <trkpt lat="49.07704" lon="2.11312">
        <ele>96</ele>
        <time>2022-09-24T17:49:52Z</time>
      </trkpt>
      <trkpt lat="49.07694" lon="2.11322">
        <ele>96</ele>
        <time>2022-09-24T17:50:07Z</time>
      </trkpt>
      <trkpt lat="49.07482" lon="2.11716">
        <ele>86</ele>
        <time>2022-09-24T17:57:33Z</time>
      </trkpt>
      <trkpt lat="49.07426" lon="2.11807">
        <ele>83.9</ele>
        <time>2022-09-24T17:59:44Z</time>
      </trkpt>
      <trkpt lat="49.07402" lon="2.11921">
        <ele>76.7</ele>
      </trkpt>
      <trkpt lat="49.07392" lon="2.12038">
        <ele>70.9</ele>
        <time>2022-09-24T18:03:06Z</time>
      </trkpt>
      <trkpt lat="49.07343" lon="2.12125">
        <ele>64.3</ele>
        <time>2022-09-24T18:04:46Z</time>
      </trkpt>
      <trkpt lat="49.07341" lon="2.12299">
        <ele>50.9</ele>
        <time>2022-09-24T18:07:22Z</time>
      </trkpt>
      <trkpt lat="49.07324" lon="2.12391">
        <ele>48</ele>
      </trkpt>
      <trkpt lat="49.07324" lon="2.12484">
        <ele>45.5</ele>
      </trkpt>
      <trkpt lat="49.07329" lon="2.12521">
        <ele>43.4</ele>
      </trkpt>
      <trkpt lat="49.07317" lon="2.12571">
        <ele>45.5</ele>
      </trkpt>
      <trkpt lat="49.07267" lon="2.12609">
        <ele>42.6</ele>
        <time>2022-09-24T18:11:41Z</time>
      </trkpt>
      <trkpt lat="49.07189" lon="2.12683">
        <ele>41.6</ele>
        <time>2022-09-24T18:14:19Z</time>
      </trkpt>
      <trkpt lat="49.07162" lon="2.12703">
        <ele>40.1</ele>
      </trkpt>
      <trkpt lat="49.07123" lon="2.12719">
        <ele>37.8</ele>
      </trkpt>
      <trkpt lat="49.07059" lon="2.12711">
        <ele>36.4</ele>
        <time>2022-09-24T18:17:32Z</time>
      </trkpt>
      <trkpt lat="49.07007" lon="2.12683">
        <ele>35.5</ele>
      </trkpt>
      <trkpt lat="49.06934" lon="2.12676">
        <ele>33.8</ele>
      </trkpt>
      <trkpt lat="49.06868" lon="2.12686">
        <ele>31.5</ele>
        <time>2022-09-24T18:21:26Z</time>
      </trkpt>
      <trkpt lat="49.0681" lon="2.12683">
        <ele>32.3</ele>
      </trkpt>
      <trkpt lat="49.06772" lon="2.1272">
        <ele>31</ele>
      </trkpt>
      <trkpt lat="49.06642" lon="2.12722">
        <ele>26.3</ele>
        <time>2022-09-24T18:25:41Z</time>
      </trkpt>
      <trkpt lat="49.06539" lon="2.12515">
        <ele>30.3</ele>
      </trkpt>
      <trkpt lat="49.06473" lon="2.12386">
        <ele>29.9</ele>
        <time>2022-09-24T18:31:37Z</time>
      </trkpt>
      <trkpt lat="49.06393" lon="2.12283">
        <ele>27.6</ele>
      </trkpt>
      <trkpt lat="49.0634" lon="2.12168">
        <ele>31.7</ele>
      </trkpt>
      <trkpt lat="49.06296" lon="2.12083">
        <ele>33</ele>
      </trkpt>
      <trkpt lat="49.06194" lon="2.11959">
        <ele>27</ele>
        <time>2022-09-24T18:41:02Z</time>
      </trkpt>
      <trkpt lat="49.06034" lon="2.11701">
        <ele>27.3</ele>
      </trkpt>
      <trkpt lat="49.05879" lon="2.11495">
        <ele>30</ele>
        <time>2022-09-24T18:50:52Z</time>
      </trkpt>
      <trkpt lat="49.05806" lon="2.11384">
        <ele>30</ele>
        <time>2022-09-24T18:53:10Z</time>
      </trkpt>
      <trkpt lat="49.05762" lon="2.11321">
        <ele>30</ele>
        <time>2022-09-24T18:54:30Z</time>
      </trkpt>
      <trkpt lat="49.05647" lon="2.11169">
        <ele>26</ele>
        <time>2022-09-24T18:57:53Z</time>
      </trkpt>
      <trkpt lat="49.05534" lon="2.11358">
        <ele>23</ele>
        <time>2022-09-24T19:01:37Z</time>
      </trkpt>
      <trkpt lat="49.05448" lon="2.11234">
        <ele>23.6</ele>
      </trkpt>
      <trkpt lat="49.05365" lon="2.1109">
        <ele>22</ele>
        <time>2022-09-24T19:07:02Z</time>
      </trkpt>
      <trkpt lat="49.05243" lon="2.10888">
        <ele>24.2</ele>
      </trkpt>
      <trkpt lat="49.05145" lon="2.107">
        <ele>24.5</ele>
      </trkpt>
      <trkpt lat="49.05067" lon="2.10507">
        <ele>24.7</ele>
        <time>2022-09-24T19:17:19Z</time>
      </trkpt>
      <trkpt lat="49.04964" lon="2.1033">
        <ele>25.6</ele>
        <time>2022-09-24T19:21:29Z</time>
      </trkpt>
      <trkpt lat="49.04847" lon="2.10142">
        <ele>28.1</ele>
        <time>2022-09-24T19:24:53Z</time>
      </trkpt>
      <trkpt lat="49.04798" lon="2.10254">
        <ele>24</ele>
        <time>2022-09-24T19:26:45Z</time>
      </trkpt>
      <trkpt lat="49.0498" lon="2.10648">
        <ele>21</ele>
        <time>2022-09-24T19:33:47Z</time>
      </trkpt>
      <trkpt lat="49.05071" lon="2.10884">
        <ele>24.2</ele>
        <time>2022-09-24T19:37:48Z</time>
      </trkpt>
      <trkpt lat="49.05011" lon="2.10918">
        <ele>23</ele>
        <time>2022-09-24T19:39:09Z</time>
      </trkpt>
      <trkpt lat="49.04988" lon="2.10959">
        <ele>24</ele>
        <time>2022-09-24T19:39:56Z</time>
      </trkpt>
      <trkpt lat="49.04876" lon="2.11049">
        <ele>25</ele>
        <time>2022-09-24T19:42:45Z</time>
      </trkpt>
      <trkpt lat="49.04708" lon="2.11197">
        <ele>26</ele>
        <time>2022-09-24T19:47:04Z</time>
      </trkpt>
      <trkpt lat="49.04679" lon="2.11224">
        <ele>27</ele>
        <time>2022-09-24T19:47:49Z</time>
      </trkpt>
      <trkpt lat="49.04739" lon="2.11442">
        <ele>25.4</ele>
        <time>2022-09-24T19:50:26Z</time>
      </trkpt>
      <trkpt lat="49.04759" lon="2.11558">
        <ele>25.4</ele>
      </trkpt>
      <trkpt lat="49.04774" lon="2.11683">
        <ele>28</ele>
        <time>2022-09-24T19:54:52Z</time>
      </trkpt>
      <trkpt lat="49.04549" lon="2.11854">
        <ele>27</ele>
        <time>2022-09-24T20:00:27Z</time>
      </trkpt>
      <trkpt lat="49.04496" lon="2.11646">
        <ele>33.9</ele>
        <time>2022-09-24T20:03:41Z</time>
      </trkpt>
      <trkpt lat="49.04477" lon="2.11651">
        <ele>34.4</ele>
      </trkpt>
      <trkpt lat="49.04461" lon="2.11671">
        <ele>34.6</ele>
      </trkpt>
      <trkpt lat="49.04426" lon="2.11766">
        <ele>32.1</ele>
      </trkpt>
      <trkpt lat="49.04386" lon="2.11864">
        <ele>28.3</ele>
      </trkpt>
      <trkpt lat="49.04365" lon="2.1191">
        <ele>27.9</ele>
      </trkpt>
      <trkpt lat="49.04336" lon="2.11959">
        <ele>28.7</ele>
      </trkpt>
      <trkpt lat="49.04278" lon="2.12046">
        <ele>29.3</ele>
        <time>2022-09-24T20:11:21Z</time>
      </trkpt>
      <trkpt lat="49.04252" lon="2.12082">
        <ele>30</ele>
        <time>2022-09-24T20:12:12Z</time>
      </trkpt>
      <trkpt lat="49.04239" lon="2.12115">
        <ele>28.2</ele>
        <time>2022-09-24T20:12:51Z</time>
      </trkpt>
      <trkpt lat="49.04242" lon="2.12124">
        <ele>27.9</ele>
      </trkpt>
      <trkpt lat="49.04247" lon="2.12132">
        <ele>27.8</ele>
      </trkpt>
      <trkpt lat="49.04264" lon="2.12146">
        <ele>27.7</ele>
      </trkpt>
      <trkpt lat="49.04288" lon="2.12157">
        <ele>27.8</ele>
      </trkpt>
      <trkpt lat="49.04324" lon="2.12181">
        <ele>30.3</ele>
        <time>2022-09-24T20:14:26Z</time>
      </trkpt>
      <trkpt lat="49.04329" lon="2.12177">
        <ele>30.5</ele>
      </trkpt>
      <trkpt lat="49.04333" lon="2.1218">
        <ele>31</ele>
      </trkpt>
      <trkpt lat="49.04336" lon="2.12195">
        <ele>32.2</ele>
      </trkpt>
      <trkpt lat="49.04337" lon="2.1221">
        <ele>32.2</ele>
      </trkpt>
      <trkpt lat="49.04335" lon="2.12231">
        <ele>31.5</ele>
      </trkpt>
      <trkpt lat="49.04329" lon="2.12252">
        <ele>29.8</ele>
      </trkpt>
      <trkpt lat="49.0429" lon="2.12271">
        <ele>28.1</ele>
      </trkpt>
      <trkpt lat="49.04286" lon="2.12291">
        <ele>27.2</ele>
      </trkpt>
      <trkpt lat="49.04278" lon="2.12485">
        <ele>27</ele>
      </trkpt>
      <trkpt lat="49.04267" lon="2.12484">
        <ele>27.8</ele>
      </trkpt>
      <trkpt lat="49.04264" lon="2.12531">
        <ele>28</ele>
      </trkpt>
      <trkpt lat="49.04265" lon="2.12609">
        <ele>28.4</ele>
      </trkpt>
      <trkpt lat="49.04199" lon="2.12731">
        <ele>28.3</ele>
        <time>2022-09-24T20:22:54Z</time>
      </trkpt>
      <trkpt lat="49.04097" lon="2.12675">
        <ele>31.2</ele>
      </trkpt>
      <trkpt lat="49.041" lon="2.1265">
        <ele>30.2</ele>
      </trkpt>
      <trkpt lat="49.04046" lon="2.12629">
        <ele>29.6</ele>
      </trkpt>
      <trkpt lat="49.04021" lon="2.12602">
        <ele>30.4</ele>
      </trkpt>
      <trkpt lat="49.03995" lon="2.12545">
        <ele>33</ele>
      </trkpt>
      <trkpt lat="49.03982" lon="2.12542">
        <ele>33.6</ele>
        <time>2022-09-24T20:28:28Z</time>
      </trkpt>
      <trkpt lat="49.03976" lon="2.12588">
        <ele>33.6</ele>
      </trkpt>
      <trkpt lat="49.0397" lon="2.12598">
        <ele>35</ele>
      </trkpt>
      <trkpt lat="49.03945" lon="2.12714">
        <ele>36.1</ele>
        <time>2022-09-24T20:30:38Z</time>
      </trkpt>
      <trkpt lat="49.03911" lon="2.12651">
        <ele>36</ele>
        <time>2022-09-24T20:31:24Z</time>
      </trkpt>
      <trkpt lat="49.03863" lon="2.12632">
        <ele>35</ele>
        <time>2022-09-24T20:32:30Z</time>
      </trkpt>
      <trkpt lat="49.03799" lon="2.12655">
        <ele>34</ele>
        <time>2022-09-24T20:33:58Z</time>
      </trkpt>
      <trkpt lat="49.0372" lon="2.12685">
        <ele>33</ele>
        <time>2022-09-24T20:35:47Z</time>
      </trkpt>
      <trkpt lat="49.03686" lon="2.12708">
        <ele>32</ele>
        <time>2022-09-24T20:36:36Z</time>
      </trkpt>
      <trkpt lat="49.0366" lon="2.12685">
        <ele>32</ele>
        <time>2022-09-24T20:37:17Z</time>
      </trkpt>
      <trkpt lat="49.03564" lon="2.12967">
        <ele>34</ele>
        <time>2022-09-24T20:41:55Z</time>
      </trkpt>
      <trkpt lat="49.03553" lon="2.13127">
        <ele>34</ele>
        <time>2022-09-24T20:44:15Z</time>
      </trkpt>
      <trkpt lat="49.0354" lon="2.13175">
        <ele>33</ele>
        <time>2022-09-24T20:45:01Z</time>
      </trkpt>
      <trkpt lat="49.03508" lon="2.13213">
        <ele>34</ele>
        <time>2022-09-24T20:45:55Z</time>
      </trkpt>
      <trkpt lat="49.03431" lon="2.13177">
        <ele>35</ele>
        <time>2022-09-24T20:47:42Z</time>
      </trkpt>
    </trkseg>
  </trk>
</gpx>